Time;durP1;ratioP1;P1;durP2;ratioP2;P2;SDS_P1;SDS_P2;PMS_P1;PMS_P2;Temp;Humidity;BMP_temperature;BMP_pressure;BME280_temperature;BME280_humidity;BME280_pressure;Samples;Min_cycle;Max_cycle;Signal;HPM_P1;HPM_P2
2022/10/13 00:00:59;;;;;;;35.35;17.15;;;;;;;11.44;71.76;99653.25;5224206;28;20177;-71
2022/10/13 00:03:49;;;;;;;32.88;15.70;;;;;;;11.32;70.76;99640.19;5227714;28;20051;-70
2022/10/13 00:06:42;;;;;;;34.87;17.83;;;;;;;11.19;72.32;99637.75;5232659;28;20060;-71
2022/10/13 00:09:32;;;;;;;34.50;15.90;;;;;;;11.10;71.68;99638.56;5225346;28;20128;-70
2022/10/13 00:12:22;;;;;;;34.20;16.45;;;;;;;11.05;71.93;99657.53;5237957;28;20056;-70
2022/10/13 00:15:13;;;;;;;33.13;16.63;;;;;;;11.21;71.52;99662.38;5230226;28;20049;-70
2022/10/13 00:18:03;;;;;;;32.30;15.60;;;;;;;11.13;71.36;99659.53;5197064;28;20045;-70
2022/10/13 00:20:53;;;;;;;30.77;15.18;;;;;;;11.10;71.31;99665.09;5215546;28;20059;-71
2022/10/13 00:23:44;;;;;;;29.65;15.80;;;;;;;11.15;71.69;99661.06;5208411;28;20583;-70
2022/10/13 00:26:41;;;;;;;30.17;15.30;;;;;;;11.07;71.35;99671.50;5221773;28;20041;-69
2022/10/13 00:29:41;;;;;;;33.50;15.98;;;;;;;10.96;71.59;99653.00;5217274;28;20506;-70
2022/10/13 00:32:31;;;;;;;34.85;16.52;;;;;;;11.02;71.82;99663.09;5227671;28;20052;-70
2022/10/13 00:35:21;;;;;;;31.23;17.02;;;;;;;11.07;72.11;99668.03;5243172;28;20102;-71
2022/10/13 00:38:12;;;;;;;34.05;17.27;;;;;;;11.25;72.21;99654.00;5240762;28;20055;-70
2022/10/13 00:41:03;;;;;;;34.15;16.67;;;;;;;11.28;71.98;99674.13;5219798;28;20045;-70
2022/10/13 00:43:58;;;;;;;32.17;17.08;;;;;;;11.20;71.94;99666.00;5242146;28;20045;-69
2022/10/13 00:46:49;;;;;;;31.13;15.18;;;;;;;11.10;72.06;99657.97;5246840;28;20852;-69
2022/10/13 00:49:39;;;;;;;28.38;16.00;;;;;;;11.10;71.79;99660.63;5246143;28;20059;-69
2022/10/13 00:52:30;;;;;;;37.38;16.42;;;;;;;11.09;71.98;99653.63;5211051;28;20044;-69
2022/10/13 00:55:24;;;;;;;36.53;16.30;;;;;;;10.90;70.94;99638.44;5239433;28;20153;-71
2022/10/13 00:58:18;;;;;;;34.45;16.88;;;;;;;11.03;71.24;99660.31;5232362;28;20063;-69
2022/10/13 01:01:08;;;;;;;38.08;15.68;;;;;;;10.94;71.45;99660.25;5220066;28;20056;-69
2022/10/13 01:03:58;;;;;;;26.45;15.38;;;;;;;10.93;71.43;99659.41;5211765;28;20048;-70
2022/10/13 01:06:51;;;;;;;24.67;13.77;;;;;;;10.77;71.71;99640.47;5235441;28;20084;-71
2022/10/13 01:09:41;;;;;;;36.17;15.90;;;;;;;10.78;70.97;99635.00;5214390;28;20057;-70
2022/10/13 01:12:37;;;;;;;31.90;15.65;;;;;;;10.99;72.55;99650.06;5225438;28;20070;-71
2022/10/13 01:15:43;;;;;;;30.23;15.27;;;;;;;11.08;71.46;99654.59;5232100;28;20076;-72
2022/10/13 01:19:04;;;;;;;37.90;15.80;;;;;;;11.07;72.59;99657.41;5213210;28;20052;-70
2022/10/13 01:22:25;;;;;;;33.70;16.25;;;;;;;11.09;73.29;99660.75;5228118;28;20057;-70
2022/10/13 01:25:19;;;;;;;33.90;16.35;;;;;;;11.16;72.68;99653.94;5219049;28;20507;-70
2022/10/13 01:28:31;;;;;;;36.30;16.73;;;;;;;11.19;72.15;99638.63;5238176;28;20120;-69
2022/10/13 01:31:44;;;;;;;31.92;16.73;;;;;;;11.32;72.28;99633.06;5235541;28;20276;-71
2022/10/13 01:34:51;;;;;;;30.70;15.73;;;;;;;11.34;71.63;99636.44;5217085;28;20052;-69
2022/10/13 01:37:50;;;;;;;30.52;15.45;;;;;;;11.28;72.62;99647.59;5214284;28;20060;-69
2022/10/13 01:40:54;;;;;;;32.10;15.65;;;;;;;11.22;72.43;99643.63;5222541;28;20045;-70
2022/10/13 01:43:59;;;;;;;28.65;15.63;;;;;;;11.18;71.85;99633.44;5220760;28;20136;-71
2022/10/13 01:46:51;;;;;;;29.85;15.32;;;;;;;11.23;71.99;99633.88;5233189;28;20051;-69
2022/10/13 01:49:42;;;;;;;38.20;16.20;;;;;;;11.31;72.38;99634.06;5231196;28;20154;-71
2022/10/13 01:52:36;;;;;;;37.20;15.93;;;;;;;11.44;71.73;99625.88;5217132;28;20518;-71
2022/10/13 01:55:28;;;;;;;30.42;16.92;;;;;;;11.43;72.28;99629.50;5245796;28;20056;-71
2022/10/13 01:58:19;;;;;;;40.50;16.35;;;;;;;11.36;72.42;99628.38;5222111;28;20109;-71
2022/10/13 02:01:40;;;;;;;32.88;16.52;;;;;;;11.56;72.25;99623.97;5238499;28;20059;-70
2022/10/13 02:04:52;;;;;;;35.35;16.33;;;;;;;11.54;72.00;99621.44;5217827;28;20067;-68
2022/10/13 02:07:42;;;;;;;35.15;17.40;;;;;;;11.59;73.00;99619.22;5228831;28;20095;-69
2022/10/13 02:10:46;;;;;;;31.13;17.30;;;;;;;11.60;72.28;99610.28;5211463;28;20049;-68
2022/10/13 02:13:43;;;;;;;32.87;17.37;;;;;;;11.54;73.08;99621.44;5215300;28;20415;-69
2022/10/13 02:16:42;;;;;;;34.72;17.45;;;;;;;11.65;72.84;99607.19;5224432;28;20738;-69
2022/10/13 02:19:37;;;;;;;33.50;17.02;;;;;;;11.56;73.11;99616.84;5224913;28;20048;-69
2022/10/13 02:22:35;;;;;;;35.15;17.30;;;;;;;11.67;73.44;99627.34;5210342;28;20724;-67
2022/10/13 02:25:27;;;;;;;37.88;18.63;;;;;;;11.75;73.28;99626.66;5245639;28;20399;-69
2022/10/13 02:28:20;;;;;;;30.02;17.30;;;;;;;11.60;73.75;99636.81;5222847;28;20048;-71
2022/10/13 02:31:11;;;;;;;32.45;18.05;;;;;;;11.68;73.17;99622.88;5242880;28;20632;-72
2022/10/13 02:34:01;;;;;;;33.38;16.67;;;;;;;11.69;74.13;99629.88;5229559;28;20522;-72
2022/10/13 02:36:51;;;;;;;34.65;16.77;;;;;;;11.72;72.57;99619.81;5243948;28;20049;-70
2022/10/13 02:39:42;;;;;;;32.30;15.88;;;;;;;11.82;72.75;99629.59;5230192;28;20111;-69
2022/10/13 02:42:33;;;;;;;33.72;16.20;;;;;;;11.86;72.65;99631.06;5220956;28;20689;-71
2022/10/13 02:45:24;;;;;;;33.05;16.50;;;;;;;12.01;72.75;99627.03;5223175;28;20573;-70
2022/10/13 02:48:17;;;;;;;32.97;17.48;;;;;;;12.05;71.95;99624.94;5243899;28;20055;-70
2022/10/13 02:51:07;;;;;;;32.95;16.67;;;;;;;11.96;72.45;99632.75;5219428;28;20113;-70
2022/10/13 02:53:57;;;;;;;33.55;16.13;;;;;;;12.04;72.35;99621.44;5227992;28;20582;-70
2022/10/13 02:56:48;;;;;;;31.52;16.77;;;;;;;12.02;72.19;99617.22;5223207;28;20049;-69
2022/10/13 02:59:38;;;;;;;30.50;15.60;;;;;;;12.05;71.67;99612.47;5214359;28;20048;-70
2022/10/13 03:02:28;;;;;;;30.08;16.05;;;;;;;12.09;72.39;99618.38;5231172;28;20055;-69
2022/10/13 03:05:19;;;;;;;29.92;15.77;;;;;;;12.15;71.94;99624.00;5227676;28;20074;-69
2022/10/13 03:08:09;;;;;;;29.40;16.13;;;;;;;12.25;71.85;99620.47;5223954;28;20048;-69
2022/10/13 03:10:59;;;;;;;30.52;15.90;;;;;;;12.19;72.03;99616.56;5231716;28;20116;-69
2022/10/13 03:13:49;;;;;;;36.58;16.30;;;;;;;12.14;71.95;99611.66;5228661;28;20140;-68
2022/10/13 03:16:39;;;;;;;39.22;15.45;;;;;;;12.19;72.50;99612.09;5234593;28;20625;-69
2022/10/13 03:19:32;;;;;;;34.55;15.57;;;;;;;12.24;72.49;99606.34;5243963;28;20064;-71
2022/10/13 03:22:23;;;;;;;29.75;15.75;;;;;;;12.17;72.17;99605.22;5208643;28;20126;-71
2022/10/13 03:25:14;;;;;;;29.83;15.82;;;;;;;12.14;72.20;99603.69;5219114;28;20126;-69
2022/10/13 03:28:05;;;;;;;34.30;15.63;;;;;;;12.10;72.55;99591.66;5215422;28;20134;-69
2022/10/13 03:31:14;;;;;;;32.25;15.23;;;;;;;12.22;72.78;99593.19;5227934;28;20105;-69
2022/10/13 03:34:04;;;;;;;31.08;15.38;;;;;;;11.97;72.52;99549.38;5209182;28;20059;-70
2022/10/13 03:36:54;;;;;;;30.02;16.23;;;;;;;12.28;72.06;99580.31;5224090;28;20418;-69
2022/10/13 03:39:44;;;;;;;30.67;15.00;;;;;;;12.28;71.68;99597.09;5234642;28;20085;-70
2022/10/13 03:42:36;;;;;;;25.25;15.05;;;;;;;12.12;71.37;99583.53;5213294;28;20052;-70
2022/10/13 03:45:26;;;;;;;25.08;13.25;;;;;;;12.18;71.66;99591.78;5226298;28;20053;-69
2022/10/13 03:48:17;;;;;;;26.60;14.25;;;;;;;12.10;71.41;99585.50;5233135;28;20052;-69
2022/10/13 03:51:09;;;;;;;26.23;13.75;;;;;;;12.01;71.32;99586.31;5235425;28;20126;-70
2022/10/13 03:54:03;;;;;;;27.05;14.77;;;;;;;11.82;72.22;99592.41;5224864;28;20063;-69
2022/10/13 03:56:54;;;;;;;27.27;14.35;;;;;;;11.87;71.59;99590.22;5222813;28;20048;-71
2022/10/13 03:59:44;;;;;;;27.20;14.32;;;;;;;11.76;71.55;99568.09;5230532;28;20072;-71
2022/10/13 04:02:35;;;;;;;29.63;14.27;;;;;;;11.79;73.02;99590.88;5229201;28;20102;-69
2022/10/13 04:05:25;;;;;;;26.00;14.68;;;;;;;11.78;72.94;99591.84;5243294;28;20514;-70
2022/10/13 04:08:15;;;;;;;31.08;14.38;;;;;;;11.82;72.60;99593.28;5224095;28;20049;-69
2022/10/13 04:11:09;;;;;;;27.15;14.80;;;;;;;11.93;72.65;99590.50;5225808;28;20612;-69
2022/10/13 04:14:02;;;;;;;32.45;14.70;;;;;;;12.04;72.01;99576.25;5235247;28;20059;-70
2022/10/13 04:16:52;;;;;;;28.55;14.18;;;;;;;12.11;72.36;99579.19;5220027;28;20048;-70
2022/10/13 04:19:42;;;;;;;66.63;31.63;;;;;;;12.14;72.59;99576.25;5224145;23;20045;-84
2022/10/13 04:22:33;;;;;;;33.95;17.95;;;;;;;12.03;72.50;99547.16;5210726;28;20049;-84
2022/10/13 04:25:23;;;;;;;32.30;15.63;;;;;;;12.18;72.07;99556.38;5177885;28;20527;-84
2022/10/13 04:28:14;;;;;;;34.58;16.65;;;;;;;12.22;71.98;99569.28;5195419;28;20057;-84
2022/10/13 04:31:04;;;;;;;34.80;15.98;;;;;;;12.40;71.83;99592.50;5192003;28;20096;-84
2022/10/13 04:33:56;;;;;;;28.58;15.73;;;;;;;12.25;72.04;99568.16;5198188;28;20046;-85
2022/10/13 04:36:49;;;;;;;27.55;14.77;;;;;;;12.13;72.57;99569.28;5182489;28;20045;-85
2022/10/13 04:39:39;;;;;;;27.77;16.08;;;;;;;11.98;73.29;99559.03;5183542;28;20108;-84
2022/10/13 04:42:29;;;;;;;29.27;14.90;;;;;;;12.14;72.44;99561.16;5182885;28;20543;-84
2022/10/13 04:45:19;;;;;;;36.25;16.15;;;;;;;11.91;73.78;99571.19;5183557;28;20053;-84
2022/10/13 04:48:11;;;;;;;31.27;16.27;;;;;;;12.03;73.11;99561.28;5198819;28;20064;-84
2022/10/13 04:51:04;;;;;;;36.20;16.63;;;;;;;12.12;72.07;99568.44;5185258;28;20064;-83
2022/10/13 04:53:57;;;;;;;24.98;14.55;;;;;;;12.21;71.76;99572.88;5181163;28;20057;-83
2022/10/13 04:56:47;;;;;;;35.30;16.38;;;;;;;12.10;72.02;99557.09;5192080;28;20052;-83
2022/10/13 04:59:37;;;;;;;32.88;16.58;;;;;;;12.12;71.46;99551.63;5196037;28;20060;-84
2022/10/13 05:02:27;;;;;;;35.33;15.93;;;;;;;12.19;71.85;99545.63;5193565;28;20050;-84
2022/10/13 05:05:18;;;;;;;31.83;14.85;;;;;;;12.23;71.56;99544.34;5202972;28;20136;-85
2022/10/13 05:08:08;;;;;;;30.85;15.55;;;;;;;12.21;72.00;99550.78;5181687;28;20105;-85
2022/10/13 05:11:01;;;;;;;33.15;15.68;;;;;;;12.22;71.44;99552.50;5169592;28;20147;-86
2022/10/13 05:13:51;;;;;;;35.10;16.02;;;;;;;12.15;71.71;99544.22;5183354;28;20064;-86
2022/10/13 05:16:42;;;;;;;31.42;15.60;;;;;;;12.22;72.37;99569.28;5183384;28;20053;-87
2022/10/13 05:19:32;;;;;;;33.92;14.73;;;;;;;12.01;72.17;99541.13;5197266;28;20132;-86
2022/10/13 05:22:22;;;;;;;30.48;15.35;;;;;;;12.15;72.21;99557.53;5183077;28;20051;-85
2022/10/13 05:25:13;;;;;;;32.50;17.05;;;;;;;12.26;72.18;99558.38;5182301;28;20052;-87
2022/10/13 05:28:05;;;;;;;30.45;15.73;;;;;;;12.27;71.73;99549.41;5174122;28;20384;-85
2022/10/13 05:30:55;;;;;;;33.20;15.30;;;;;;;12.32;72.10;99547.16;5171452;28;20116;-85
2022/10/13 05:33:47;;;;;;;34.25;15.40;;;;;;;12.47;72.23;99582.97;5171839;28;20124;-86
2022/10/13 05:36:42;;;;;;;37.42;16.63;;;;;;;12.60;72.30;99580.84;5176939;28;20163;-85
2022/10/13 05:39:32;;;;;;;40.97;18.20;;;;;;;12.16;72.14;99507.84;5186044;28;20065;-86
2022/10/13 05:42:23;;;;;;;49.53;20.02;;;;;;;12.63;71.97;99587.72;5176547;28;20056;-85
2022/10/13 05:45:13;;;;;;;41.38;18.75;;;;;;;12.43;72.78;99586.91;5166872;28;20131;-84
2022/10/13 05:48:03;;;;;;;47.10;18.45;;;;;;;12.52;72.06;99580.72;5186428;28;20056;-84
2022/10/13 05:50:55;;;;;;;39.85;16.90;;;;;;;12.58;72.51;99590.81;5177127;28;20107;-85
2022/10/13 05:53:54;;;;;;;32.25;16.88;;;;;;;12.57;72.71;99583.78;5175284;28;20115;-83
2022/10/13 05:56:52;;;;;;;38.00;17.58;;;;;;;12.67;72.24;99589.94;5184938;28;20131;-85
2022/10/13 05:59:52;;;;;;;32.75;16.27;;;;;;;12.70;72.34;99581.66;5181267;28;20053;-84
2022/10/13 06:02:51;;;;;;;38.80;18.10;;;;;;;12.73;72.21;99575.22;5195079;28;20072;-84
2022/10/13 06:05:46;;;;;;;41.72;17.92;;;;;;;12.62;72.20;99546.13;5191864;28;20502;-84
2022/10/13 06:08:37;;;;;;;38.92;18.00;;;;;;;12.63;71.82;99514.06;5178566;28;20528;-84
2022/10/13 06:11:27;;;;;;;39.95;18.27;;;;;;;12.84;71.28;99548.44;5191559;28;20064;-84
2022/10/13 06:14:18;;;;;;;38.10;16.55;;;;;;;12.85;72.01;99554.63;5176976;28;20050;-83
2022/10/13 06:17:08;;;;;;;34.88;16.67;;;;;;;12.88;71.97;99555.16;5194067;28;20061;-84
2022/10/13 06:19:59;;;;;;;31.45;15.88;;;;;;;12.85;71.42;99542.16;5194683;28;20108;-85
2022/10/13 06:22:50;;;;;;;30.77;15.75;;;;;;;12.86;71.80;99556.28;5203424;28;20055;-85
2022/10/13 06:25:51;;;;;;;36.63;16.75;;;;;;;13.00;71.51;99562.97;5170241;28;20473;-84
2022/10/13 06:28:41;;;;;;;34.63;16.38;;;;;;;13.04;71.32;99549.22;5192671;28;20057;-83
2022/10/13 06:31:40;;;;;;;34.45;17.13;;;;;;;13.03;71.66;99560.84;5179302;28;20060;-84
2022/10/13 06:34:30;;;;;;;36.30;17.05;;;;;;;12.92;72.20;99532.59;5180340;28;20088;-84
2022/10/13 06:37:20;;;;;;;46.72;20.45;;;;;;;13.43;72.16;99561.56;5170904;28;20147;-84
2022/10/13 06:40:16;;;;;;;40.85;19.00;;;;;;;13.60;72.29;99569.56;5184969;28;20060;-84
2022/10/13 06:43:06;;;;;;;45.40;19.80;;;;;;;13.50;71.98;99550.16;5203591;28;20052;-83
2022/10/13 06:46:03;;;;;;;40.85;19.48;;;;;;;13.60;71.87;99544.75;5188289;28;20041;-84
2022/10/13 06:48:53;;;;;;;40.47;20.02;;;;;;;13.73;72.12;99568.41;5206262;28;20083;-85
2022/10/13 06:51:43;;;;;;;53.85;23.50;;;;;;;13.86;72.02;99568.88;5171022;28;20103;-88
2022/10/13 06:54:34;;;;;;;46.63;21.58;;;;;;;13.76;71.88;99544.94;5189009;28;20140;-87
2022/10/13 06:57:25;;;;;;;44.45;21.65;;;;;;;13.57;71.62;99494.44;5180196;28;20152;-87
2022/10/13 07:00:16;;;;;;;39.08;19.65;;;;;;;14.10;71.38;99562.94;5181429;28;20052;-88
2022/10/13 07:03:09;;;;;;;46.17;20.35;;;;;;;14.06;70.61;99541.06;5194402;28;20060;-88
2022/10/13 07:06:04;;;;;;;41.38;19.30;;;;;;;14.22;70.29;99560.88;5194323;28;20056;-87
2022/10/13 07:08:54;;;;;;;53.55;21.80;;;;;;;14.12;70.62;99542.28;5200149;28;20064;-87
2022/10/13 07:11:45;;;;;;;43.63;19.92;;;;;;;14.21;70.79;99541.38;5181277;28;20141;-84
2022/10/13 07:14:35;;;;;;;40.33;18.85;;;;;;;14.32;70.24;99548.31;5203998;28;20483;-81
2022/10/13 07:17:31;;;;;;;33.50;18.05;;;;;;;14.26;70.14;99543.56;5184913;28;20048;-82
2022/10/13 07:20:22;;;;;;;43.15;18.75;;;;;;;14.21;70.16;99533.38;5193204;28;20112;-82
2022/10/13 07:23:14;;;;;;;36.95;18.08;;;;;;;14.28;70.93;99531.78;5191463;28;20114;-81
2022/10/13 07:26:13;;;;;;;40.35;18.95;;;;;;;14.34;70.83;99531.16;5190642;28;20553;-83
2022/10/13 07:29:03;;;;;;;37.95;18.80;;;;;;;14.39;71.19;99530.69;5190279;28;20053;-82
2022/10/13 07:31:53;;;;;;;36.53;17.52;;;;;;;14.39;70.64;99529.84;5193384;28;20084;-83
2022/10/13 07:34:44;;;;;;;35.13;16.85;;;;;;;14.44;69.76;99520.41;5192128;28;20072;-83
2022/10/13 07:37:36;;;;;;;37.42;19.05;;;;;;;14.78;70.45;99543.66;5175498;28;20323;-81
2022/10/13 07:40:27;;;;;;;38.67;17.80;;;;;;;14.72;69.61;99514.94;5175531;28;20132;-82
2022/10/13 07:43:17;;;;;;;40.47;18.00;;;;;;;15.03;68.75;99526.78;5182264;28;20056;-83
2022/10/13 07:46:10;;;;;;;35.97;16.65;;;;;;;15.45;67.14;99515.25;5180292;28;20493;-83
2022/10/13 07:49:01;;;;;;;37.95;17.73;;;;;;;15.94;66.13;99541.31;5190382;28;20120;-83
2022/10/13 07:51:51;;;;;;;37.60;16.77;;;;;;;16.31;65.61;99538.16;5190973;28;20060;-81
2022/10/13 07:54:43;;;;;;;36.95;17.33;;;;;;;16.63;65.44;99553.38;5180928;28;20065;-83
2022/10/13 07:57:33;;;;;;;34.72;16.90;;;;;;;16.69;64.87;99541.16;5173114;28;20057;-81
2022/10/13 08:00:23;;;;;;;36.90;17.30;;;;;;;16.88;63.79;99551.50;5166525;28;20054;-82
2022/10/13 08:03:13;;;;;;;34.20;16.40;;;;;;;16.96;63.78;99526.56;5194512;28;20053;-82
2022/10/13 08:06:06;;;;;;;28.58;15.20;;;;;;;17.33;62.52;99544.69;5175805;28;20050;-82
2022/10/13 08:08:56;;;;;;;33.63;15.75;;;;;;;16.90;63.36;99514.69;5183350;28;20057;-82
2022/10/13 08:11:47;;;;;;;29.25;14.60;;;;;;;17.31;61.88;99527.91;5175155;28;20049;-83
2022/10/13 08:14:38;;;;;;;33.25;15.30;;;;;;;17.24;62.78;99516.22;5177757;28;20460;-82
2022/10/13 08:17:30;;;;;;;30.58;15.63;;;;;;;17.32;62.29;99521.56;5182855;28;20056;-82
2022/10/13 08:20:20;;;;;;;29.23;15.98;;;;;;;17.67;61.32;99505.13;5188398;28;20101;-83
2022/10/13 08:23:12;;;;;;;33.33;15.77;;;;;;;17.85;61.03;99513.78;5172299;28;20069;-83
2022/10/13 08:26:16;;;;;;;34.28;16.10;;;;;;;18.39;60.56;99515.53;5184126;28;20034;-82
2022/10/13 08:29:07;;;;;;;27.67;15.38;;;;;;;18.54;58.66;99508.31;5199346;28;20056;-82
2022/10/13 08:32:11;;;;;;;34.03;15.00;;;;;;;19.40;57.45;99516.78;5173893;28;20057;-84
2022/10/13 08:35:02;;;;;;;27.55;13.75;;;;;;;19.24;57.11;99486.44;5183125;28;20057;-83
2022/10/13 08:37:56;;;;;;;31.77;14.20;;;;;;;19.68;54.87;99495.44;5179880;28;20049;-83
2022/10/13 08:40:50;;;;;;;25.55;13.63;;;;;;;19.65;56.18;99512.78;5161737;28;20073;-84
2022/10/13 08:43:49;;;;;;;27.83;13.20;;;;;;;20.08;55.67;99512.00;5179796;28;20076;-83
2022/10/13 08:47:22;;;;;;;28.70;12.60;;;;;;;20.19;53.95;99512.28;5181101;28;20056;-84
2022/10/13 08:50:17;;;;;;;31.92;12.82;;;;;;;20.50;53.03;99508.44;5170175;28;20076;-84
2022/10/13 08:53:15;;;;;;;21.75;12.98;;;;;;;20.08;53.84;99504.75;5174789;28;20103;-82
2022/10/13 08:56:13;;;;;;;28.10;12.18;;;;;;;20.61;54.20;99518.69;5176249;28;20436;-83
2022/10/13 08:59:05;;;;;;;27.67;12.77;;;;;;;20.05;54.98;99502.44;5186159;28;20064;-83
2022/10/13 09:01:56;;;;;;;24.80;12.20;;;;;;;20.56;53.95;99504.13;5177569;28;20114;-81
2022/10/13 09:04:51;;;;;;;23.15;11.52;;;;;;;20.25;54.04;99504.47;5184763;28;20068;-82
2022/10/13 09:07:44;;;;;;;27.75;11.93;;;;;;;20.52;52.24;99490.22;5184167;28;20053;-82
2022/10/13 09:10:45;;;;;;;22.27;12.07;;;;;;;19.94;54.98;99467.97;5193729;28;20044;-83
2022/10/13 09:13:41;;;;;;;26.40;12.55;;;;;;;19.50;54.90;99493.13;5178722;28;20206;-83
2022/10/13 09:16:41;;;;;;;24.67;11.52;;;;;;;19.84;56.06;99499.75;5178991;28;20065;-82
2022/10/13 09:19:37;;;;;;;28.08;11.80;;;;;;;19.97;55.73;99509.78;5186058;28;20589;-83
2022/10/13 09:22:30;;;;;;;33.35;11.95;;;;;;;20.05;53.78;99513.19;5193533;28;20558;-83
2022/10/13 09:25:21;;;;;;;20.17;11.43;;;;;;;20.06;53.63;99500.56;5205819;28;20099;-85
2022/10/13 09:28:25;;;;;;;24.45;10.75;;;;;;;19.88;56.75;99514.50;5185921;28;20386;-83
2022/10/13 09:31:17;;;;;;;23.40;11.02;;;;;;;19.69;57.73;99502.47;5183738;28;20064;-82
2022/10/13 09:34:20;;;;;;;18.98;10.70;;;;;;;19.84;56.65;99505.13;5194476;28;20073;-83
2022/10/13 09:37:22;;;;;;;21.00;10.88;;;;;;;19.66;55.16;99487.53;5196758;28;20049;-83
2022/10/13 09:40:19;;;;;;;20.95;10.88;;;;;;;19.54;57.28;99501.69;5189102;28;20083;-82
2022/10/13 09:43:28;;;;;;;18.10;9.88;;;;;;;19.47;55.69;99455.88;5203269;28;20061;-82
2022/10/13 09:46:43;;;;;;;18.73;9.73;;;;;;;19.49;56.98;99502.22;5188326;28;20099;-82
2022/10/13 09:49:41;;;;;;;22.42;10.27;;;;;;;19.20;56.42;99452.88;5184368;28;20516;-83
2022/10/13 09:52:33;;;;;;;20.40;10.00;;;;;;;19.34;57.35;99477.25;5179660;28;20049;-84
2022/10/13 09:55:34;;;;;;;22.90;10.15;;;;;;;19.53;56.50;99502.69;5163750;28;20092;-86
2022/10/13 09:58:29;;;;;;;20.60;9.23;;;;;;;18.68;57.49;99440.38;5173539;28;20100;-84
2022/10/13 10:01:26;;;;;;;23.10;10.48;;;;;;;19.04;57.90;99492.53;5170480;28;20202;-83
2022/10/13 10:04:36;;;;;;;23.40;10.77;;;;;;;19.08;57.19;99496.56;5162334;28;20046;-85
2022/10/13 10:07:30;;;;;;;30.02;10.35;;;;;;;18.64;57.59;99417.59;5185192;28;20056;-82
2022/10/13 10:10:38;;;;;;;23.00;10.10;;;;;;;18.89;57.99;99484.50;5171562;28;20737;-82
2022/10/13 10:13:29;;;;;;;22.20;8.85;;;;;;;19.05;56.57;99497.75;5172746;28;20057;-83
2022/10/13 10:16:41;;;;;;;23.35;10.50;;;;;;;18.27;57.66;99426.53;5190151;28;20120;-85
2022/10/13 10:19:57;;;;;;;20.30;10.07;;;;;;;18.95;56.81;99491.81;5182695;28;20057;-84
2022/10/13 10:23:37;;;;;;;21.55;9.43;;;;;;;18.73;56.89;99486.34;5175871;28;20064;-82
2022/10/13 10:26:47;;;;;;;23.35;8.90;;;;;;;18.67;57.35;99470.09;5199240;28;20057;-82
2022/10/13 10:29:49;;;;;;;19.33;9.80;;;;;;;18.79;57.73;99484.78;5185870;28;20064;-84
2022/10/13 10:32:53;;;;;;;20.80;9.23;;;;;;;18.62;57.93;99483.25;5181016;28;20112;-81
2022/10/13 10:36:17;;;;;;;19.23;9.63;;;;;;;18.69;57.68;99476.97;5177062;28;20106;-83
2022/10/13 10:39:22;;;;;;;30.30;10.57;;;;;;;18.69;57.35;99476.97;5192503;28;20112;-83
2022/10/13 10:42:33;;;;;;;26.95;10.35;;;;;;;18.29;59.16;99462.91;5177983;28;20088;-84
2022/10/13 10:45:36;;;;;;;18.33;10.05;;;;;;;18.24;59.46;99464.47;5174710;28;20057;-82
2022/10/13 10:48:36;;;;;;;23.80;9.57;;;;;;;17.99;59.65;99426.31;5169298;28;20053;-82
2022/10/13 10:51:37;;;;;;;16.73;9.90;;;;;;;18.13;59.64;99444.28;5184898;28;20106;-83
2022/10/13 10:54:48;;;;;;;16.40;8.90;;;;;;;18.31;58.74;99439.44;5178762;28;20077;-86
2022/10/13 10:58:11;;;;;;;16.73;9.23;;;;;;;18.47;59.64;99467.94;5174584;28;20061;-83
2022/10/13 11:01:13;;;;;;;22.10;8.85;;;;;;;18.45;60.33;99456.56;5169323;28;20442;-82
2022/10/13 11:04:31;;;;;;;19.65;9.40;;;;;;;18.61;59.60;99452.03;5189029;28;20103;-83
2022/10/13 11:07:21;;;;;;;20.02;9.40;;;;;;;18.58;59.58;99447.06;5185410;28;20076;-84
2022/10/13 11:10:12;;;;;;;24.85;9.95;;;;;;;18.57;59.61;99443.50;5168363;28;20049;-84
2022/10/13 11:13:16;;;;;;;23.35;9.35;;;;;;;18.21;60.10;99406.66;5176484;28;20061;-83
2022/10/13 11:16:27;;;;;;;17.42;8.80;;;;;;;18.36;59.10;99435.34;5159305;28;20520;-82
2022/10/13 11:19:53;;;;;;;21.92;9.05;;;;;;;19.00;57.15;99425.72;5173209;28;20099;-84
2022/10/13 11:22:58;;;;;;;17.23;8.63;;;;;;;18.85;57.72;99430.31;5083283;28;20189;-82
2022/10/13 11:25:49;;;;;;;16.90;8.40;;;;;;;18.84;57.57;99411.66;5185493;28;20103;-81
2022/10/13 11:28:39;;;;;;;21.40;8.75;;;;;;;19.05;58.09;99414.44;5178627;28;20049;-83
2022/10/13 11:31:46;;;;;;;22.85;9.38;;;;;;;19.01;58.38;99408.59;5158596;28;20049;-83
2022/10/13 11:34:37;;;;;;;15.88;8.32;;;;;;;19.15;56.40;99398.84;5166553;28;20044;-82
2022/10/13 11:37:52;;;;;;;17.95;8.85;;;;;;;19.12;57.79;99418.03;5178974;28;20045;-80
2022/10/13 11:40:57;;;;;;;28.60;10.05;;;;;;;19.10;57.43;99409.31;5173142;28;20551;-82
2022/10/13 11:44:05;;;;;;;17.33;8.63;;;;;;;19.06;58.45;99410.72;5174963;28;20658;-82
2022/10/13 11:47:16;;;;;;;16.05;8.77;;;;;;;19.05;58.54;99408.22;5182272;28;20186;-82
2022/10/13 11:50:21;;;;;;;23.55;9.15;;;;;;;19.07;58.32;99403.47;5172785;28;20053;-83
2022/10/13 11:53:20;;;;;;;18.10;8.15;;;;;;;19.35;57.85;99393.69;5172824;28;20049;-80
2022/10/13 11:56:32;;;;;;;17.35;8.55;;;;;;;19.36;56.73;99378.38;5186524;28;20053;-83
2022/10/13 11:59:36;;;;;;;20.55;9.38;;;;;;;19.29;58.64;99377.47;5156053;28;20081;-83
2022/10/13 12:02:27;;;;;;;19.08;8.80;;;;;;;19.25;57.13;99369.78;5176982;28;20531;-81
2022/10/13 12:05:25;;;;;;;24.33;8.32;;;;;;;19.41;57.49;99381.34;5176058;28;20709;-85
2022/10/13 12:08:19;;;;;;;19.33;8.82;;;;;;;19.13;57.35;99341.75;5178961;28;20079;-83
2022/10/13 12:11:23;;;;;;;22.25;7.68;;;;;;;19.32;57.52;99361.78;5182400;28;20057;-83
2022/10/13 12:14:21;;;;;;;16.50;8.35;;;;;;;18.88;58.40;99284.03;5178006;28;20061;-86
2022/10/13 12:17:34;;;;;;;19.35;7.80;;;;;;;19.38;58.12;99370.97;5194284;28;20138;-81
2022/10/13 12:20:30;;;;;;;16.80;7.55;;;;;;;19.34;55.86;99319.44;5165542;28;20069;-81
2022/10/13 12:23:21;;;;;;;17.33;7.35;;;;;;;19.83;54.51;99339.31;5182980;28;20079;-82
2022/10/13 12:26:20;;;;;;;17.63;8.02;;;;;;;19.74;56.52;99335.94;5184189;28;20053;-81
2022/10/13 12:29:14;;;;;;;20.10;7.60;;;;;;;20.05;54.85;99340.09;5187491;28;20164;-82
2022/10/13 12:32:20;;;;;;;13.60;7.45;;;;;;;19.93;55.19;99329.88;5185520;28;20127;-81
2022/10/13 12:35:27;;;;;;;20.55;8.75;;;;;;;19.63;56.30;99310.38;5195730;28;20068;-82
2022/10/13 12:38:19;;;;;;;16.80;7.53;;;;;;;19.78;57.00;99331.00;5183957;28;20056;-81
2022/10/13 12:41:10;;;;;;;16.10;7.63;;;;;;;19.48;56.53;99296.19;5194866;28;20107;-83
2022/10/13 12:44:03;;;;;;;16.13;7.28;;;;;;;19.67;56.00;99305.47;5179391;28;20115;-83
2022/10/13 12:47:00;;;;;;;17.63;7.80;;;;;;;19.86;55.99;99320.91;5172707;28;20629;-83
2022/10/13 12:49:51;;;;;;;17.45;8.25;;;;;;;19.91;56.11;99323.03;5179211;28;20057;-86
2022/10/13 12:52:41;;;;;;;13.50;7.35;;;;;;;19.73;54.79;99253.56;5174492;28;20065;-85
2022/10/13 12:55:32;;;;;;;16.98;7.15;;;;;;;19.78;56.52;99296.03;5164008;28;20197;-82
2022/10/13 12:58:42;;;;;;;18.83;7.70;;;;;;;19.97;55.77;99314.19;5176048;28;20068;-82
2022/10/13 13:01:34;;;;;;;14.73;7.50;;;;;;;19.68;56.75;99297.19;5164837;28;20061;-85
2022/10/13 13:04:27;;;;;;;17.30;8.20;;;;;;;19.92;56.90;99308.53;5173478;28;20091;-82
2022/10/13 13:07:29;;;;;;;13.38;7.03;;;;;;;19.70;56.03;99278.16;5171674;28;20057;-82
2022/10/13 13:10:19;;;;;;;16.15;7.20;;;;;;;19.98;55.83;99317.69;5181677;28;20141;-84
2022/10/13 13:13:14;;;;;;;15.10;6.75;;;;;;;19.84;57.84;99300.63;5180502;28;21806;-82
2022/10/13 13:16:18;;;;;;;12.88;7.45;;;;;;;20.20;54.01;99300.44;5185621;28;20064;-81
2022/10/13 13:19:21;;;;;;;21.60;7.00;;;;;;;19.87;56.12;99294.84;5196357;28;20053;-85
2022/10/13 13:22:13;;;;;;;14.32;7.30;;;;;;;19.96;56.49;99301.72;5174883;28;20069;-81
2022/10/13 13:25:05;;;;;;;10.90;6.57;;;;;;;19.63;55.98;99261.97;5182468;28;20046;-83
2022/10/13 13:27:55;;;;;;;19.08;7.03;;;;;;;19.81;55.62;99282.19;5183060;28;20102;-84
2022/10/13 13:30:46;;;;;;;16.77;6.28;;;;;;;19.90;55.87;99305.19;5178245;28;20053;-84